Time;durP1;ratioP1;P1;durP2;ratioP2;P2;SDS_P1;SDS_P2;PMS_P1;PMS_P2;Temp;Humidity;BMP_temperature;BMP_pressure;BME280_temperature;BME280_humidity;BME280_pressure;Samples;Min_cycle;Max_cycle;Signal;HPM_P1;HPM_P2
2022/11/09 00:01:59;;;;;;;0.65;0.40;;;24.20;99.90;;;;;;5053057;28;20280;-79
2022/11/09 00:04:30;;;;;;;3.20;0.30;;;24.50;99.90;;;;;;5052972;28;20246;-74
2022/11/09 00:07:03;;;;;;;1.25;0.40;;;24.30;99.90;;;;;;5054515;28;20292;-76
2022/11/09 00:09:34;;;;;;;1.73;0.30;;;24.40;99.90;;;;;;5050285;28;20222;-72
2022/11/09 00:12:06;;;;;;;0.73;0.40;;;24.20;99.90;;;;;;5049554;28;20225;-76
2022/11/09 00:14:37;;;;;;;1.08;0.40;;;24.10;99.90;;;;;;5042891;28;20194;-73
2022/11/09 00:17:08;;;;;;;2.15;0.50;;;24.10;99.90;;;;;;5049281;28;20190;-79
2022/11/09 00:19:39;;;;;;;2.78;0.70;;;24.20;99.90;;;;;;5057239;28;20207;-75
2022/11/09 00:22:12;;;;;;;2.30;0.43;;;24.30;99.90;;;;;;5050173;28;20229;-74
2022/11/09 00:24:43;;;;;;;1.33;0.32;;;24.40;99.90;;;;;;5050070;28;20284;-77
2022/11/09 00:27:14;;;;;;;4.47;0.50;;;24.60;99.90;;;;;;5052180;28;20232;-72
2022/11/09 00:29:45;;;;;;;2.10;0.50;;;24.40;99.90;;;;;;5046592;28;20198;-71
2022/11/09 00:32:21;;;;;;;1.35;0.30;;;24.20;99.90;;;;;;5057529;28;20213;-75
2022/11/09 00:34:52;;;;;;;2.42;0.50;;;23.90;99.90;;;;;;5051777;28;20524;-75
2022/11/09 00:37:25;;;;;;;0.85;0.60;;;24.10;99.90;;;;;;5052805;28;20283;-81
2022/11/09 00:39:55;;;;;;;0.90;0.40;;;24.10;99.90;;;;;;5049784;28;20574;-77
2022/11/09 00:42:26;;;;;;;1.88;0.65;;;24.10;99.90;;;;;;5052480;28;20186;-76
2022/11/09 00:44:57;;;;;;;2.08;0.38;;;23.80;99.90;;;;;;5053972;28;20637;-74
2022/11/09 00:47:28;;;;;;;2.78;0.50;;;23.90;99.90;;;;;;5050393;28;20202;-83
2022/11/09 00:49:59;;;;;;;1.95;0.40;;;24.30;99.90;;;;;;5052557;28;20720;-78
2022/11/09 00:52:32;;;;;;;2.00;0.50;;;24.50;99.90;;;;;;5053456;28;20209;-84
2022/11/09 00:55:02;;;;;;;1.10;0.45;;;24.50;99.90;;;;;;5053748;28;20193;-81
2022/11/09 00:57:33;;;;;;;1.75;0.47;;;24.20;99.90;;;;;;5052864;28;20193;-73
2022/11/09 01:00:04;;;;;;;2.08;0.40;;;24.10;99.90;;;;;;5049825;28;20559;-80
2022/11/09 01:02:35;;;;;;;0.95;0.32;;;24.20;99.90;;;;;;5053598;28;20285;-76
2022/11/09 01:05:06;;;;;;;1.73;0.57;;;24.10;99.90;;;;;;5053759;28;20194;-73
2022/11/09 01:07:39;;;;;;;1.80;0.40;;;24.10;99.90;;;;;;5054022;28;20186;-73
2022/11/09 01:10:11;;;;;;;2.28;0.50;;;24.40;99.90;;;;;;5051263;28;20669;-72
2022/11/09 01:12:41;;;;;;;1.75;0.35;;;24.30;99.90;;;;;;5053112;28;20221;-74
2022/11/09 01:15:12;;;;;;;2.85;0.65;;;24.40;99.90;;;;;;5052787;28;20181;-73
2022/11/09 01:17:43;;;;;;;2.83;0.40;;;24.50;99.90;;;;;;5051743;28;20331;-79
2022/11/09 01:20:14;;;;;;;3.22;0.40;;;24.50;99.90;;;;;;5046153;28;20296;-74
2022/11/09 01:22:47;;;;;;;1.30;0.40;;;24.40;99.90;;;;;;5050849;28;20707;-81
2022/11/09 01:25:18;;;;;;;1.15;0.20;;;24.30;99.90;;;;;;5052851;28;20196;-73
2022/11/09 01:27:49;;;;;;;1.30;0.50;;;24.40;99.90;;;;;;5051936;28;20279;-76
2022/11/09 01:30:20;;;;;;;1.33;0.40;;;24.30;99.90;;;;;;5053509;28;20221;-84
2022/11/09 01:32:51;;;;;;;1.55;0.40;;;24.10;99.90;;;;;;5052400;28;20214;-73
2022/11/09 01:37:55;;;;;;;2.13;0.70;;;24.00;99.90;;;;;;5138115;22;20593;-76
2022/11/09 01:40:26;;;;;;;2.05;0.45;;;24.00;99.90;;;;;;5050536;28;20193;-75
2022/11/09 01:42:57;;;;;;;1.15;0.40;;;24.30;99.90;;;;;;5052217;28;20208;-75
2022/11/09 01:45:29;;;;;;;1.48;0.35;;;24.10;99.90;;;;;;5053580;28;20197;-78
2022/11/09 01:48:05;;;;;;;2.35;0.45;;;23.90;99.90;;;;;;5045404;28;20636;-76
2022/11/09 01:50:44;;;;;;;2.42;0.40;;;24.00;99.90;;;;;;5053065;28;20197;-76
2022/11/09 01:53:21;;;;;;;0.50;0.40;;;24.00;99.90;;;;;;5049483;28;20213;-75
2022/11/09 01:55:56;;;;;;;0.55;0.40;;;24.10;99.90;;;;;;5044319;28;20197;-77
2022/11/09 01:58:32;;;;;;;1.33;0.50;;;24.00;99.90;;;;;;5052530;28;20204;-75
2022/11/09 02:01:04;;;;;;;1.10;0.40;;;23.90;99.90;;;;;;5043430;28;20193;-77
2022/11/09 02:03:37;;;;;;;2.30;0.52;;;23.80;99.90;;;;;;5051370;28;20566;-76
2022/11/09 02:06:10;;;;;;;0.88;0.50;;;23.90;99.90;;;;;;5046395;28;20208;-78
2022/11/09 02:08:44;;;;;;;2.08;0.43;;;23.80;99.90;;;;;;5046741;28;20198;-76
2022/11/09 02:11:16;;;;;;;0.57;0.32;;;24.00;99.90;;;;;;5051582;28;20610;-77
2022/11/09 02:13:50;;;;;;;1.45;0.50;;;23.90;99.90;;;;;;5044451;28;20626;-77
2022/11/09 02:16:21;;;;;;;2.90;0.50;;;23.80;99.90;;;;;;5051869;28;20660;-77
2022/11/09 02:18:54;;;;;;;3.08;0.60;;;23.60;99.90;;;;;;5045369;28;20664;-75
2022/11/09 02:21:28;;;;;;;1.75;0.50;;;23.60;99.90;;;;;;5045333;28;20193;-74
2022/11/09 02:23:59;;;;;;;1.30;0.38;;;23.70;99.90;;;;;;5042364;28;20559;-76
2022/11/09 02:26:33;;;;;;;1.25;0.30;;;23.70;99.90;;;;;;5047927;28;20200;-76
2022/11/09 02:29:05;;;;;;;0.60;0.30;;;23.90;99.90;;;;;;5045493;28;20195;-79
2022/11/09 02:31:40;;;;;;;1.05;0.40;;;23.90;99.90;;;;;;5048108;28;20194;-76
2022/11/09 02:34:14;;;;;;;0.52;0.40;;;23.90;99.90;;;;;;5051407;28;20213;-76
2022/11/09 02:36:47;;;;;;;1.02;0.35;;;23.90;99.90;;;;;;5035347;28;20355;-76
2022/11/09 02:39:20;;;;;;;0.40;0.40;;;23.80;99.90;;;;;;5023550;28;20194;-75
2022/11/09 02:41:55;;;;;;;0.82;0.40;;;23.90;99.90;;;;;;5030584;28;20202;-76
2022/11/09 02:44:27;;;;;;;0.35;0.30;;;23.80;99.90;;;;;;5031105;28;20224;-76
2022/11/09 02:46:58;;;;;;;1.90;0.43;;;23.80;99.90;;;;;;5024590;28;20187;-75
2022/11/09 02:49:28;;;;;;;0.40;0.40;;;23.50;99.90;;;;;;5029213;28;20205;-75
2022/11/09 02:52:01;;;;;;;1.17;0.30;;;23.30;99.90;;;;;;5024593;28;20662;-76
2022/11/09 02:54:32;;;;;;;1.73;0.40;;;23.40;99.90;;;;;;5028779;28;20224;-81
2022/11/09 02:57:03;;;;;;;2.45;0.40;;;23.50;99.90;;;;;;5027559;28;20198;-76
2022/11/09 02:59:34;;;;;;;1.88;0.55;;;23.50;99.90;;;;;;5027642;28;20567;-76
2022/11/09 03:02:04;;;;;;;1.45;0.32;;;23.50;99.90;;;;;;5015716;28;20204;-77
2022/11/09 03:04:35;;;;;;;3.13;0.50;;;23.50;99.90;;;;;;5030382;28;20209;-77
2022/11/09 03:07:08;;;;;;;0.50;0.20;;;23.50;99.90;;;;;;5027469;28;20194;-77
2022/11/09 03:09:40;;;;;;;1.67;0.40;;;23.60;99.90;;;;;;5026379;28;20198;-78
2022/11/09 03:15:00;;;;;;;2.05;0.30;;;23.50;99.90;;;;;;5027990;28;20314;-77
2022/11/09 03:17:33;;;;;;;2.58;0.40;;;23.40;99.90;;;;;;5032926;28;20277;-77
2022/11/09 03:20:03;;;;;;;0.68;0.40;;;23.30;99.90;;;;;;5028893;28;20526;-77
2022/11/09 03:22:36;;;;;;;0.68;0.30;;;23.30;99.90;;;;;;5028085;28;20566;-76
2022/11/09 03:25:07;;;;;;;1.73;0.32;;;23.30;99.90;;;;;;5032436;28;20198;-76
2022/11/09 03:27:38;;;;;;;1.40;0.30;;;23.40;99.90;;;;;;5032904;28;20187;-76
2022/11/09 03:30:11;;;;;;;1.83;0.40;;;23.30;99.90;;;;;;5030353;28;20204;-77
2022/11/09 03:32:43;;;;;;;0.85;0.43;;;23.40;99.90;;;;;;5032583;28;20199;-76
2022/11/09 03:35:13;;;;;;;1.55;0.25;;;23.40;99.90;;;;;;5023319;28;20202;-77
2022/11/09 03:37:47;;;;;;;1.55;0.22;;;23.40;99.90;;;;;;5025925;28;20238;-76
2022/11/09 03:40:21;;;;;;;1.95;0.30;;;23.30;99.90;;;;;;5028686;28;20208;-76
2022/11/09 03:42:52;;;;;;;1.73;0.30;;;23.40;99.90;;;;;;5030473;28;20201;-77
2022/11/09 03:45:22;;;;;;;0.50;0.32;;;23.40;99.90;;;;;;5027081;28;20662;-76
2022/11/09 03:47:55;;;;;;;1.60;0.20;;;23.30;99.90;;;;;;5032075;28;20205;-75
2022/11/09 03:50:26;;;;;;;0.52;0.20;;;23.30;99.90;;;;;;5025395;28;20274;-77
2022/11/09 03:52:59;;;;;;;0.93;0.20;;;23.20;99.90;;;;;;5035411;28;20214;-77
2022/11/09 03:55:30;;;;;;;0.40;0.30;;;23.10;99.90;;;;;;5031971;28;20198;-76
2022/11/09 03:58:01;;;;;;;0.88;0.30;;;23.00;99.90;;;;;;5031473;28;20190;-76
2022/11/09 04:00:32;;;;;;;0.63;0.35;;;23.00;99.90;;;;;;5029792;28;20199;-76
2022/11/09 04:03:03;;;;;;;0.70;0.30;;;23.00;99.90;;;;;;5032873;28;20554;-77
2022/11/09 04:05:34;;;;;;;1.05;0.28;;;23.10;99.90;;;;;;5035770;28;20216;-78
2022/11/09 04:08:10;;;;;;;1.10;0.30;;;23.30;99.90;;;;;;5035527;28;20186;-76
2022/11/09 04:10:41;;;;;;;1.40;0.20;;;23.20;99.90;;;;;;5035704;28;20204;-77
2022/11/09 04:13:12;;;;;;;0.22;0.20;;;23.10;99.90;;;;;;5033508;28;20196;-76
2022/11/09 04:15:43;;;;;;;0.40;0.20;;;23.00;99.90;;;;;;5031293;28;20198;-77
2022/11/09 04:18:16;;;;;;;0.63;0.28;;;22.90;99.90;;;;;;5034390;28;20551;-77
2022/11/09 04:20:47;;;;;;;0.60;0.20;;;22.90;99.90;;;;;;5034987;28;20202;-75
2022/11/09 04:23:20;;;;;;;0.60;0.20;;;22.80;99.90;;;;;;5035129;28;20205;-76
2022/11/09 04:25:50;;;;;;;1.55;0.20;;;22.80;99.90;;;;;;5027221;28;20547;-75
2022/11/09 04:28:22;;;;;;;0.55;0.20;;;22.90;99.90;;;;;;5034224;28;20549;-77
2022/11/09 04:30:52;;;;;;;0.20;0.20;;;22.80;99.90;;;;;;5035286;28;20189;-77
2022/11/09 04:33:23;;;;;;;0.30;0.20;;;22.80;99.90;;;;;;5026679;28;20560;-76
2022/11/09 04:35:54;;;;;;;2.45;0.40;;;22.90;99.90;;;;;;5033828;28;20236;-80
2022/11/09 04:38:27;;;;;;;0.40;0.20;;;22.90;99.90;;;;;;5032715;28;20209;-78
2022/11/09 04:41:01;;;;;;;0.32;0.30;;;23.00;99.90;;;;;;5025747;28;20202;-77
2022/11/09 04:43:32;;;;;;;0.95;0.55;;;23.00;99.90;;;;;;5034694;28;20202;-76
2022/11/09 04:46:04;;;;;;;0.63;0.35;;;23.10;99.90;;;;;;5026843;28;20186;-76
2022/11/09 04:48:35;;;;;;;0.32;0.30;;;23.10;99.90;;;;;;5029076;28;20229;-77
2022/11/09 04:51:07;;;;;;;0.52;0.40;;;22.90;99.90;;;;;;5033906;28;20220;-79
2022/11/09 04:53:41;;;;;;;1.17;0.50;;;22.80;99.90;;;;;;5027109;28;20211;-76
2022/11/09 04:56:12;;;;;;;1.58;0.25;;;22.80;99.90;;;;;;5033435;28;20268;-76
2022/11/09 04:58:43;;;;;;;1.42;0.47;;;22.60;99.90;;;;;;5028707;28;20194;-80
2022/11/09 05:01:15;;;;;;;0.40;0.20;;;22.60;99.90;;;;;;5029772;28;20201;-76
2022/11/09 05:03:46;;;;;;;1.05;0.40;;;22.60;99.90;;;;;;5032547;28;20198;-77
2022/11/09 05:06:35;;;;;;;1.33;0.20;;;22.50;99.90;;;;;;5033329;28;20190;-76
2022/11/09 05:09:09;;;;;;;0.68;0.20;;;22.50;99.90;;;;;;5031966;28;20206;-77
2022/11/09 05:11:39;;;;;;;1.00;0.30;;;22.50;99.90;;;;;;5033700;28;20191;-81
2022/11/09 05:14:10;;;;;;;0.40;0.30;;;22.50;99.90;;;;;;5033034;28;20220;-77
2022/11/09 05:16:42;;;;;;;0.43;0.30;;;22.40;99.90;;;;;;5029826;28;20289;-78
2022/11/09 05:19:12;;;;;;;3.95;0.50;;;22.30;99.90;;;;;;5032304;28;20198;-79
2022/11/09 05:21:43;;;;;;;3.38;0.40;;;22.10;99.90;;;;;;5030194;28;20195;-78
2022/11/09 05:24:14;;;;;;;1.92;0.43;;;22.10;99.90;;;;;;5032854;28;20682;-82
2022/11/09 05:26:45;;;;;;;1.40;0.30;;;22.00;99.90;;;;;;5033260;28;20240;-77
2022/11/09 05:29:16;;;;;;;2.50;0.20;;;22.10;99.90;;;;;;5032514;28;20273;-77
2022/11/09 05:31:47;;;;;;;0.32;0.20;;;22.10;99.90;;;;;;5029789;28;20198;-76
2022/11/09 05:34:18;;;;;;;2.80;0.22;;;22.00;99.90;;;;;;5032818;28;20216;-78
2022/11/09 05:36:49;;;;;;;0.28;0.13;;;22.00;99.90;;;;;;5032236;28;20256;-77
2022/11/09 05:39:21;;;;;;;1.20;0.20;;;21.90;99.90;;;;;;5030996;28;20554;-77
2022/11/09 05:41:52;;;;;;;0.40;0.20;;;21.90;99.90;;;;;;5030038;28;20197;-79
2022/11/09 05:44:23;;;;;;;1.92;0.22;;;21.70;99.90;;;;;;5033200;28;20191;-78
2022/11/09 05:46:53;;;;;;;0.68;0.30;;;21.70;99.90;;;;;;5024437;28;20223;-77
2022/11/09 05:49:24;;;;;;;0.85;0.20;;;21.60;99.90;;;;;;5028898;28;20190;-76
2022/11/09 05:51:55;;;;;;;0.73;0.30;;;21.50;99.90;;;;;;5033150;28;20197;-75
2022/11/09 05:54:28;;;;;;;2.03;0.30;;;21.60;99.90;;;;;;5032652;28;20218;-78
2022/11/09 05:57:00;;;;;;;4.68;0.30;;;21.70;99.90;;;;;;5027054;28;23641;-78
2022/11/09 05:59:31;;;;;;;3.03;0.43;;;21.80;99.90;;;;;;5025986;28;20679;-78
2022/11/09 06:02:01;;;;;;;0.43;0.20;;;21.80;99.90;;;;;;5031044;28;20202;-77
2022/11/09 06:04:32;;;;;;;1.17;0.30;;;21.70;99.90;;;;;;5025227;28;20202;-75
2022/11/09 06:07:03;;;;;;;1.15;0.20;;;21.60;99.90;;;;;;5026221;28;20194;-75
2022/11/09 06:09:36;;;;;;;0.47;0.20;;;21.70;99.90;;;;;;5031256;28;20191;-76
2022/11/09 06:12:07;;;;;;;1.25;0.30;;;21.70;99.90;;;;;;5031976;28;20190;-77
2022/11/09 06:14:37;;;;;;;2.30;0.40;;;21.80;99.90;;;;;;5030985;28;20206;-77
2022/11/09 06:17:08;;;;;;;0.98;0.30;;;21.80;99.90;;;;;;5026260;28;20285;-76
2022/11/09 06:19:39;;;;;;;1.02;0.30;;;21.70;99.90;;;;;;5032489;28;20197;-76
2022/11/09 06:22:10;;;;;;;1.38;0.40;;;21.70;99.90;;;;;;5032005;28;20265;-75
2022/11/09 06:24:42;;;;;;;3.03;0.30;;;21.70;99.90;;;;;;5031676;28;20186;-78
2022/11/09 06:27:13;;;;;;;2.03;0.20;;;21.80;99.90;;;;;;5030546;28;20190;-76
2022/11/09 06:29:44;;;;;;;0.90;0.20;;;21.60;99.90;;;;;;5032182;28;20183;-79
2022/11/09 06:32:14;;;;;;;1.85;0.30;;;21.60;99.90;;;;;;5031711;28;20198;-75
2022/11/09 06:34:47;;;;;;;1.05;0.30;;;21.60;99.90;;;;;;5031675;28;20206;-76
2022/11/09 06:37:18;;;;;;;0.63;0.30;;;21.60;99.90;;;;;;5031797;28;20226;-76
2022/11/09 06:39:51;;;;;;;0.28;0.20;;;21.70;99.90;;;;;;5031560;28;20244;-75
2022/11/09 06:42:22;;;;;;;2.65;0.38;;;21.70;99.90;;;;;;5030907;28;20654;-76
2022/11/09 06:44:53;;;;;;;0.82;0.30;;;21.60;99.90;;;;;;5028107;28;20664;-75
2022/11/09 06:47:23;;;;;;;0.57;0.25;;;21.50;99.90;;;;;;5031386;28;20186;-80
2022/11/09 06:49:54;;;;;;;2.03;0.40;;;21.50;99.90;;;;;;5029320;28;20183;-76
2022/11/09 06:52:25;;;;;;;1.15;0.30;;;21.40;99.90;;;;;;5029764;28;20190;-76
2022/11/09 06:54:58;;;;;;;0.47;0.40;;;21.30;99.90;;;;;;5028898;28;20210;-76
2022/11/09 06:57:31;;;;;;;1.08;0.32;;;21.20;99.90;;;;;;5020396;28;20302;-77
2022/11/09 07:00:02;;;;;;;0.63;0.20;;;21.20;99.90;;;;;;5027857;28;20198;-76
2022/11/09 07:02:33;;;;;;;0.40;0.20;;;21.10;99.90;;;;;;5030093;28;20226;-76
2022/11/09 07:05:04;;;;;;;3.45;0.30;;;21.10;99.90;;;;;;5024893;28;20200;-78
2022/11/09 07:07:34;;;;;;;0.57;0.20;;;21.10;99.90;;;;;;5024370;28;20217;-76
2022/11/09 07:10:08;;;;;;;0.63;0.30;;;21.10;99.90;;;;;;5025002;28;20203;-77
2022/11/09 07:12:39;;;;;;;0.88;0.30;;;21.10;99.90;;;;;;5026226;28;20202;-77
2022/11/09 07:15:10;;;;;;;0.47;0.30;;;21.10;99.90;;;;;;5025228;28;20218;-77
2022/11/09 07:17:41;;;;;;;0.75;0.20;;;21.00;99.90;;;;;;5030148;28;20281;-77
2022/11/09 07:20:13;;;;;;;1.75;0.22;;;21.00;99.90;;;;;;5027418;28;20601;-77
2022/11/09 07:22:44;;;;;;;1.48;0.20;;;20.90;99.90;;;;;;5024148;28;20203;-76
2022/11/09 07:25:17;;;;;;;0.50;0.10;;;20.80;99.90;;;;;;5029568;28;20197;-78
2022/11/09 07:27:48;;;;;;;1.17;0.20;;;20.70;99.90;;;;;;5032756;28;20244;-75
2022/11/09 07:30:19;;;;;;;2.72;0.50;;;20.70;99.90;;;;;;5028624;28;20216;-77
2022/11/09 07:32:50;;;;;;;2.33;0.30;;;20.70;99.90;;;;;;5030931;28;20194;-78
2022/11/09 07:35:20;;;;;;;2.17;0.35;;;20.60;99.90;;;;;;5031274;28;20237;-76
2022/11/09 07:37:51;;;;;;;0.65;0.43;;;20.60;99.90;;;;;;5030582;28;20239;-75
2022/11/09 07:40:26;;;;;;;1.88;0.50;;;20.60;99.90;;;;;;5027895;28;20194;-75
2022/11/09 07:43:01;;;;;;;2.05;0.40;;;20.60;99.90;;;;;;5033589;28;20240;-76
2022/11/09 07:45:32;;;;;;;2.42;0.50;;;20.50;99.90;;;;;;5030117;28;20304;-78
2022/11/09 07:48:03;;;;;;;0.30;0.30;;;20.50;99.90;;;;;;5030595;28;20202;-78
2022/11/09 07:50:35;;;;;;;1.08;0.35;;;20.50;99.90;;;;;;5031722;28;20209;-76
2022/11/09 07:53:06;;;;;;;0.43;0.30;;;20.50;99.90;;;;;;5032014;28;20198;-76
2022/11/09 07:55:39;;;;;;;0.55;0.50;;;20.40;99.90;;;;;;5028577;28;20226;-77
2022/11/09 07:58:12;;;;;;;2.92;0.80;;;20.40;99.90;;;;;;5030687;28;20202;-75
2022/11/09 08:00:43;;;;;;;1.15;0.60;;;20.30;99.90;;;;;;5032845;28;20194;-77
2022/11/09 08:03:14;;;;;;;3.33;0.50;;;20.30;99.90;;;;;;5029210;28;20200;-78
2022/11/09 08:05:45;;;;;;;0.28;0.28;;;20.30;99.90;;;;;;5032808;28;20190;-77
2022/11/09 08:08:16;;;;;;;0.45;0.30;;;20.20;99.90;;;;;;5032917;28;20681;-76
2022/11/09 08:10:51;;;;;;;0.65;0.30;;;20.10;99.90;;;;;;5025949;28;20671;-77
2022/11/09 08:13:22;;;;;;;1.80;0.40;;;20.10;99.90;;;;;;5032815;28;20726;-76
2022/11/09 08:15:53;;;;;;;1.20;0.50;;;20.00;99.90;;;;;;5030583;28;20236;-78
2022/11/09 08:18:24;;;;;;;0.90;0.43;;;20.00;99.90;;;;;;5028049;28;20567;-76
2022/11/09 08:20:55;;;;;;;2.13;0.38;;;19.90;99.90;;;;;;5031614;28;20181;-78
2022/11/09 08:23:26;;;;;;;2.35;0.65;;;19.80;99.90;;;;;;5031421;28;20187;-74
2022/11/09 08:25:59;;;;;;;1.35;0.60;;;19.80;99.90;;;;;;5025130;28;20203;-77
2022/11/09 08:28:29;;;;;;;1.08;0.50;;;19.70;99.90;;;;;;5032094;28;20200;-77
2022/11/09 08:31:02;;;;;;;0.95;0.50;;;19.70;99.90;;;;;;5029970;28;20198;-76
2022/11/09 08:33:37;;;;;;;2.38;0.50;;;19.60;99.90;;;;;;5027593;28;20194;-76
2022/11/09 08:36:18;;;;;;;1.52;0.40;;;19.60;99.90;;;;;;5029437;28;20260;-76
2022/11/09 08:38:49;;;;;;;1.48;0.40;;;19.60;99.90;;;;;;5028921;28;20193;-76
2022/11/09 08:41:23;;;;;;;1.58;0.60;;;19.50;99.90;;;;;;5029590;28;20337;-79
2022/11/09 08:43:55;;;;;;;0.80;0.40;;;19.50;99.90;;;;;;5032772;28;20771;-78
2022/11/09 08:46:25;;;;;;;0.50;0.40;;;19.40;99.90;;;;;;5027856;28;20198;-79
2022/11/09 08:48:56;;;;;;;0.60;0.50;;;19.40;99.90;;;;;;5030010;28;20202;-76
2022/11/09 08:51:27;;;;;;;0.93;0.50;;;19.40;99.90;;;;;;5025085;28;20190;-76
2022/11/09 08:53:58;;;;;;;1.45;0.40;;;19.40;99.90;;;;;;5030298;28;20196;-77
2022/11/09 08:56:30;;;;;;;3.35;0.63;;;19.40;99.90;;;;;;5028580;28;20213;-78
2022/11/09 08:59:01;;;;;;;0.80;0.50;;;19.30;99.90;;;;;;5031023;28;20293;-76
2022/11/09 09:01:32;;;;;;;0.60;0.60;;;19.30;99.90;;;;;;5032531;28;20194;-75
2022/11/09 09:04:03;;;;;;;1.25;0.55;;;19.30;99.90;;;;;;5029797;28;20200;-78
2022/11/09 09:06:34;;;;;;;1.95;0.88;;;19.30;99.90;;;;;;5027094;28;20672;-76
2022/11/09 09:09:05;;;;;;;2.35;0.60;;;19.20;99.90;;;;;;5028343;28;20195;-78
2022/11/09 09:11:37;;;;;;;0.73;0.50;;;19.20;99.90;;;;;;5031894;28;20198;-77
2022/11/09 09:14:08;;;;;;;2.15;1.00;;;19.20;99.90;;;;;;5029931;28;20197;-80
2022/11/09 09:16:39;;;;;;;1.40;0.50;;;19.10;99.90;;;;;;5027717;28;20227;-76
2022/11/09 09:19:10;;;;;;;3.10;0.60;;;19.10;99.90;;;;;;5030185;28;20204;-78
2022/11/09 09:21:41;;;;;;;1.30;0.43;;;19.10;99.90;;;;;;5030218;28;20285;-78
2022/11/09 09:24:12;;;;;;;1.25;0.50;;;19.10;99.90;;;;;;5033678;28;20194;-78
2022/11/09 09:26:45;;;;;;;0.52;0.40;;;19.00;99.90;;;;;;5030215;28;20194;-78
2022/11/09 09:29:16;;;;;;;2.70;0.85;;;19.00;99.90;;;;;;5032605;28;20194;-78
2022/11/09 09:31:47;;;;;;;1.13;0.50;;;19.00;99.90;;;;;;5024462;28;20198;-77
2022/11/09 09:34:18;;;;;;;1.02;0.70;;;19.00;99.90;;;;;;5030533;28;20651;-79
2022/11/09 09:36:49;;;;;;;0.35;0.30;;;19.00;99.90;;;;;;5028660;28;20240;-79
2022/11/09 09:39:20;;;;;;;2.65;0.75;;;18.90;99.90;;;;;;5030102;28;20210;-78
2022/11/09 09:41:55;;;;;;;1.27;0.73;;;19.00;99.90;;;;;;5021200;28;20218;-77
2022/11/09 09:44:31;;;;;;;2.40;0.52;;;18.90;99.90;;;;;;5016430;28;20198;-77
2022/11/09 09:47:10;;;;;;;1.52;0.60;;;18.90;99.90;;;;;;5021546;28;20205;-77
2022/11/09 09:49:45;;;;;;;1.98;0.65;;;18.90;99.90;;;;;;5023638;28;20202;-76
2022/11/09 09:52:23;;;;;;;1.45;0.50;;;18.90;99.90;;;;;;5028406;28;20660;-77
2022/11/09 09:55:00;;;;;;;1.38;0.50;;;18.90;99.90;;;;;;5027216;28;20246;-81
2022/11/09 09:57:34;;;;;;;1.83;0.40;;;18.90;99.90;;;;;;5026942;28;20202;-77
2022/11/09 10:00:08;;;;;;;1.85;0.40;;;18.90;99.90;;;;;;5028361;28;20220;-77
2022/11/09 10:02:39;;;;;;;0.45;0.40;;;18.80;99.90;;;;;;5028672;28;20197;-77
2022/11/09 10:05:16;;;;;;;1.65;0.50;;;18.90;99.90;;;;;;5032498;28;20265;-77
2022/11/09 10:07:54;;;;;;;1.15;0.43;;;18.80;99.90;;;;;;5028043;28;20221;-77
2022/11/09 10:10:37;;;;;;;2.05;0.90;;;18.80;99.90;;;;;;5023475;28;20194;-79
2022/11/09 10:13:28;;;;;;;1.80;0.90;;;18.80;99.90;;;;;;5026723;28;20194;-78
2022/11/09 10:16:10;;;;;;;2.75;0.63;;;18.80;99.90;;;;;;5032098;28;20214;-78
2022/11/09 10:18:54;;;;;;;3.10;0.75;;;18.80;99.90;;;;;;5032098;28;20216;-78
2022/11/09 10:21:40;;;;;;;1.40;0.40;;;18.70;99.90;;;;;;5024583;28;20194;-77
2022/11/09 10:24:25;;;;;;;0.73;0.50;;;18.70;99.90;;;;;;5024220;28;20677;-74
2022/11/09 10:27:00;;;;;;;1.15;0.60;;;18.80;99.90;;;;;;5031258;28;20198;-74
2022/11/09 10:29:40;;;;;;;2.33;0.60;;;18.70;99.90;;;;;;5024623;28;20214;-78
2022/11/09 10:32:17;;;;;;;1.42;1.00;;;18.70;99.90;;;;;;5028123;28;20393;-77
2022/11/09 10:34:54;;;;;;;3.28;1.20;;;18.70;99.90;;;;;;5028226;28;20206;-76
2022/11/09 10:37:29;;;;;;;3.72;0.70;;;18.70;99.90;;;;;;5027330;28;20225;-77
2022/11/09 10:40:15;;;;;;;0.85;0.60;;;18.60;99.90;;;;;;5028060;28;20724;-77
2022/11/09 10:42:49;;;;;;;1.60;0.70;;;18.60;99.90;;;;;;5029579;28;20221;-76
2022/11/09 10:45:31;;;;;;;1.65;0.60;;;18.60;99.90;;;;;;5031262;28;20281;-79
2022/11/09 10:48:02;;;;;;;0.93;0.47;;;18.60;99.90;;;;;;5031086;28;20190;-77
2022/11/09 10:50:36;;;;;;;0.82;0.32;;;18.60;99.90;;;;;;5027378;28;20206;-77
2022/11/09 10:53:18;;;;;;;0.88;0.30;;;18.60;99.90;;;;;;5031122;28;20190;-78
2022/11/09 10:55:57;;;;;;;1.40;0.40;;;18.60;99.90;;;;;;5028969;28;20233;-77
2022/11/09 10:58:33;;;;;;;0.70;0.40;;;18.60;99.90;;;;;;5030078;28;20251;-76
2022/11/09 11:01:13;;;;;;;1.42;0.30;;;18.50;99.90;;;;;;5032313;28;20236;-76
2022/11/09 11:03:45;;;;;;;2.17;0.70;;;18.50;99.90;;;;;;5035964;28;20200;-77
2022/11/09 11:06:22;;;;;;;0.98;0.40;;;18.50;99.90;;;;;;5034363;28;20190;-77
2022/11/09 11:09:14;;;;;;;0.50;0.40;;;18.50;99.90;;;;;;5032120;28;20546;-77
2022/11/09 11:11:46;;;;;;;0.90;0.35;;;18.50;99.90;;;;;;5035787;28;20210;-76
2022/11/09 11:14:20;;;;;;;0.50;0.40;;;18.40;99.90;;;;;;5036801;28;20202;-78
2022/11/09 11:16:55;;;;;;;1.60;0.40;;;18.40;99.90;;;;;;5035770;28;20219;-77
2022/11/09 11:19:40;;;;;;;2.10;0.35;;;18.40;99.90;;;;;;5030685;28;20202;-75
2022/11/09 11:22:23;;;;;;;0.93;0.38;;;18.40;99.90;;;;;;5030677;28;20843;-75
2022/11/09 11:24:59;;;;;;;2.10;0.40;;;18.40;99.90;;;;;;5038511;28;20201;-79
2022/11/09 11:27:37;;;;;;;1.92;0.43;;;18.40;99.90;;;;;;5039280;28;20194;-75
2022/11/09 11:30:13;;;;;;;1.33;0.40;;;18.40;99.90;;;;;;5038061;28;20218;-75
2022/11/09 11:32:46;;;;;;;2.10;0.40;;;18.40;99.90;;;;;;5032196;28;20191;-78
2022/11/09 11:35:19;;;;;;;2.10;0.60;;;18.40;99.90;;;;;;5036454;28;20194;-76
2022/11/09 11:38:01;;;;;;;1.13;0.40;;;18.40;99.90;;;;;;5030614;28;20229;-77
2022/11/09 11:40:36;;;;;;;1.25;0.50;;;18.40;99.90;;;;;;5031499;28;20224;-77
2022/11/09 11:43:28;;;;;;;1.08;0.40;;;18.40;99.90;;;;;;5039146;28;20190;-79
2022/11/09 11:46:08;;;;;;;1.20;0.30;;;18.30;99.90;;;;;;5033001;28;20204;-78
2022/11/09 11:49:12;;;;;;;1.52;0.60;;;18.40;99.90;;;;;;5030994;28;20190;-77
2022/11/09 11:51:53;;;;;;;2.60;0.52;;;18.30;99.90;;;;;;5018442;28;20237;-78
2022/11/09 11:54:32;;;;;;;2.40;0.65;;;18.30;99.90;;;;;;5035284;28;20224;-77
2022/11/09 11:57:15;;;;;;;0.45;0.45;;;18.30;99.90;;;;;;5038108;28;20217;-77
2022/11/09 12:00:10;;;;;;;1.10;0.47;;;18.30;99.90;;;;;;5030331;28;20220;-77
2022/11/09 12:03:27;;;;;;;0.50;0.40;;;18.20;99.90;;;;;;5038421;28;20197;-78
2022/11/09 12:06:22;;;;;;;4.75;0.68;;;18.10;99.90;;;;;;5030888;28;20202;-77
2022/11/09 12:09:17;;;;;;;0.88;0.47;;;18.10;99.90;;;;;;5038094;28;20198;-77
2022/11/09 12:11:57;;;;;;;0.65;0.40;;;18.00;99.90;;;;;;5036403;28;20198;-77
2022/11/09 12:14:38;;;;;;;0.63;0.40;;;18.00;99.90;;;;;;5035292;28;20190;-77
2022/11/09 12:17:18;;;;;;;0.57;0.40;;;18.00;99.90;;;;;;5033228;28;20233;-78
2022/11/09 12:20:25;;;;;;;0.77;0.40;;;18.00;99.90;;;;;;5031912;28;20201;-77
2022/11/09 12:23:12;;;;;;;1.40;0.50;;;18.00;99.90;;;;;;5033301;28;20197;-77
2022/11/09 12:25:52;;;;;;;2.92;0.50;;;18.00;99.90;;;;;;5028136;28;20286;-77
2022/11/09 12:28:36;;;;;;;2.90;0.57;;;18.00;99.90;;;;;;5025015;28;20269;-77
2022/11/09 12:31:18;;;;;;;0.93;0.40;;;17.90;99.90;;;;;;5033479;28;20649;-78
2022/11/09 12:33:53;;;;;;;0.32;0.30;;;18.00;99.90;;;;;;5033769;28;20198;-77
2022/11/09 12:36:28;;;;;;;0.70;0.50;;;18.00;99.90;;;;;;5025769;28;20241;-77
2022/11/09 12:39:07;;;;;;;0.73;0.40;;;18.00;99.90;;;;;;5031255;28;20201;-78
2022/11/09 12:41:40;;;;;;;0.60;0.60;;;18.00;99.90;;;;;;5027680;28;20700;-76
2022/11/09 12:44:16;;;;;;;3.20;0.40;;;18.10;99.90;;;;;;5029935;28;20206;-77
2022/11/09 12:46:51;;;;;;;0.82;0.40;;;18.10;99.90;;;;;;5032846;28;20202;-77
2022/11/09 12:49:34;;;;;;;2.55;0.50;;;18.10;99.90;;;;;;5031804;28;20261;-77
2022/11/09 12:52:05;;;;;;;0.65;0.30;;;18.20;99.90;;;;;;5033600;28;20194;-77
2022/11/09 12:54:41;;;;;;;0.68;0.30;;;18.20;99.90;;;;;;5033058;28;20208;-77
2022/11/09 12:57:15;;;;;;;0.93;0.32;;;18.20;99.90;;;;;;5031501;28;20261;-77
2022/11/09 12:59:50;;;;;;;1.42;0.40;;;18.20;99.90;;;;;;5032137;28;20200;-77
2022/11/09 13:02:26;;;;;;;1.67;0.30;;;18.20;99.90;;;;;;5033836;28;20206;-77
2022/11/09 13:05:02;;;;;;;1.67;0.45;;;18.30;99.90;;;;;;5033015;28;20567;-77
2022/11/09 13:07:45;;;;;;;0.75;0.40;;;18.30;99.90;;;;;;5030654;28;20201;-77
2022/11/09 13:10:33;;;;;;;1.55;0.40;;;18.30;99.90;;;;;;5027907;28;20206;-78
2022/11/09 13:13:22;;;;;;;0.80;0.40;;;18.30;99.90;;;;;;5025723;28;20195;-76
2022/11/09 13:16:14;;;;;;;2.47;0.50;;;18.30;99.90;;;;;;5029656;28;20264;-77
2022/11/09 13:18:53;;;;;;;1.20;0.40;;;18.40;99.90;;;;;;5033559;28;20197;-78
2022/11/09 13:21:41;;;;;;;1.88;0.40;;;18.30;99.90;;;;;;5027206;28;20195;-79
2022/11/09 13:24:58;;;;;;;2.30;0.50;;;18.30;99.90;;;;;;5024149;28;20671;-79
2022/11/09 13:27:47;;;;;;;1.00;0.40;;;18.40;99.90;;;;;;5027854;28;20272;-78
2022/11/09 13:30:43;;;;;;;1.23;0.35;;;18.30;99.90;;;;;;5028324;28;20226;-78